Latest Weather Observations for Yarram Airport

IDV60801

Issued at 11:35 am EST Saturday 19 April 2014 (issued every 30 minutes, with the page automatically refreshed every 10 minutes)

About weather observations | Map of weather stations | Latest weather observations for VIC | Other Formats
Station Details ID: 085151 Name: YARRAM AIRPORT Lat: -38.56 Lon: 146.75 Height: 17.9 m
Data from the previous 72 hours. | See also: Recent months at Yarram Airport
Date/Time
EST
Temp
°C
App
Temp
°C
Dew
Point
Rel
Hum
%
Delta-T
°C
Wind Press
QNH
hPa
Press
MSL
hPa
Rain
since 9 am
mm
Dir
 
Spd
km/h
Gust
km/h
Spd
kts
Gust
kts
19/11:30am 13.5 9.6 13.3 99 0.1 W 26 32 14 17 1018.9 - 0.0
19/11:00am 13.0 9.4 13.0 100 0.0 W 24 30 13 16 1019.1 - 0.0
19/10:30am 12.4 8.2 12.4 100 0.0 WSW 26 35 14 19 1019.3 - 0.0
19/10:00am 14.1 11.5 13.1 94 0.6 W 19 28 10 15 1018.9 - 0.0
19/09:30am 13.3 11.3 12.7 96 0.3 W 15 20 8 11 1018.8 - 0.0
19/09:00am 12.1 9.1 11.9 99 0.1 WSW 19 28 10 15 1018.8 1018.8 3.4
19/08:30am 11.5 8.4 11.5 100 0.0 W 19 30 10 16 1018.9 - 3.0
19/08:00am 11.6 9.6 11.4 99 0.1 W 13 15 7 8 1018.5 - 3.0
19/07:30am 11.2 9.1 11.2 100 0.0 W 13 15 7 8 1018.2 - 3.0
19/07:00am 10.6 8.0 10.6 100 0.0 WNW 15 17 8 9 1018.0 - 3.0
19/06:30am 10.9 8.7 10.9 100 0.0 W 13 15 7 8 1017.9 - 3.0
19/06:00am 10.1 6.9 9.9 99 0.1 W 17 22 9 12 1017.6 1017.6 3.0
19/05:30am 8.2 6.4 8.1 99 0.0 NNW 7 9 4 5 1017.3 - 3.0
19/05:00am 10.1 7.3 10.1 100 0.0 W 15 19 8 10 1017.1 - 3.0
19/04:30am 10.9 7.3 10.7 99 0.1 W 20 26 11 14 1016.9 - 3.0
19/04:00am 10.1 7.3 10.1 100 0.0 W 15 20 8 11 1016.8 - 3.0
19/03:30am 11.0 7.7 11.0 100 0.0 W 19 24 10 13 1016.9 - 3.0
19/03:00am 11.3 5.1 11.3 100 0.0 WSW 35 50 19 27 1017.2 1017.2 2.8
19/02:40am 11.1 5.8 11.1 100 0.0 WSW 30 52 16 28 1017.3 - 2.8
19/02:33am 11.6 4.3 11.4 99 0.1 WSW 41 52 22 28 1017.3 - 2.8
19/02:30am 10.9 7.3 10.6 98 0.2 W 20 26 11 14 1017.3 - 2.8
19/02:00am 10.2 7.4 10.0 99 0.1 W 15 19 8 10 1017.4 - 2.8
19/01:30am 10.8 8.1 10.5 98 0.2 W 15 20 8 11 1017.4 - 2.8
19/01:00am 11.1 8.2 10.9 99 0.1 W 17 20 9 11 1017.4 - 2.8
19/12:30am 11.0 7.7 11.0 100 0.0 WNW 19 24 10 13 1017.5 - 2.8
19/12:00am 11.0 8.1 11.0 100 0.0 W 17 20 9 11 1017.6 1017.6 2.8
 
Date/Time
EST
Temp
°C
App
Temp
°C
Dew
Point
Rel
Hum
%
Delta-T
°C
Wind Press
QNH
hPa
Press
MSL
hPa
Rain
since 9 am
mm
Dir
 
Spd
km/h
Gust
km/h
Spd
kts
Gust
kts
18/11:30pm 10.1 8.1 10.1 100 0.0 WNW 11 13 6 7 1017.8 - 2.8
18/11:00pm 10.3 8.7 10.3 100 0.0 NW 9 11 5 6 1017.9 - 2.8
18/10:30pm 11.5 8.2 11.5 100 0.0 W 20 26 11 14 1018.0 - 2.8
18/10:00pm 10.6 7.6 10.6 100 0.0 WNW 17 20 9 11 1018.0 - 2.8
18/09:30pm 11.1 7.9 11.1 100 0.0 W 19 24 10 13 1018.0 - 2.8
18/09:00pm 10.7 8.5 10.7 100 0.0 NW 13 17 7 9 1017.8 1017.8 2.4
18/08:30pm 11.7 8.1 11.7 100 0.0 W 22 28 12 15 1017.6 - 2.2
18/08:00pm 11.4 8.2 11.4 100 0.0 WSW 19 24 10 13 1017.3 - 2.0
18/07:30pm 11.9 8.3 11.7 99 0.1 WSW 22 32 12 17 1017.4 - 2.0
18/07:00pm 11.6 8.8 11.4 99 0.1 W 17 26 9 14 1017.0 - 1.8
18/06:34pm 13.0 8.3 11.9 93 0.6 WSW 28 50 15 27 1017.0 - 1.8
18/06:30pm 13.3 9.2 11.4 88 1.0 WSW 24 32 13 17 1016.8 - 1.8
18/06:00pm 13.3 9.5 11.2 87 1.1 W 22 30 12 16 1016.2 1016.2 1.8
18/05:30pm 13.4 8.3 12.0 91 0.8 WSW 30 37 16 20 1015.8 - 1.8
18/05:11pm 14.2 9.1 11.9 86 1.2 WSW 30 48 16 26 1015.5 - 1.8
18/05:00pm 14.4 9.1 11.2 81 1.7 WSW 30 39 16 21 1015.2 - 1.8
18/04:30pm 15.3 9.8 11.9 80 1.8 WSW 32 48 17 26 1015.0 - 1.8
18/04:00pm 15.6 9.5 13.1 85 1.4 WSW 37 50 20 27 1014.6 - 1.8
18/03:40pm 14.9 8.8 12.9 88 1.1 WSW 37 57 20 31 1014.5 - 1.8
18/03:30pm 16.4 11.0 13.9 85 1.4 WSW 35 48 19 26 1014.2 - 1.8
18/03:00pm 14.6 8.5 13.0 90 0.9 WSW 37 52 20 28 1014.3 1014.3 1.8
18/02:46pm 16.2 10.8 13.9 86 1.3 WSW 35 57 19 31 1014.0 - 1.6
18/02:30pm 16.3 11.2 14.7 90 0.9 WSW 35 44 19 24 1013.7 - 1.6
18/02:02pm 15.3 10.3 15.0 98 0.2 WSW 35 54 19 29 1013.6 - 1.6
18/02:00pm 15.9 11.8 15.9 100 0.0 WSW 32 46 17 25 1013.6 - 1.6
18/01:45pm 14.1 9.7 14.1 100 0.0 WSW 30 48 16 26 1013.5 - 1.6
18/01:30pm 14.7 10.1 14.7 100 0.0 WSW 32 41 17 22 1013.5 - 1.2
18/01:00pm 14.7 9.9 14.7 100 0.0 WSW 33 50 18 27 1013.3 - 1.2
18/12:35pm 14.0 10.0 14.0 100 0.0 W 28 48 15 26 1013.2 - 1.0
18/12:30pm 14.0 10.7 14.0 100 0.0 W 24 33 13 18 1013.2 - 1.0
18/12:00pm 14.3 8.3 14.3 100 0.0 W 39 57 21 31 1013.1 1013.1 0.8
18/11:53am 14.7 8.7 14.4 98 0.2 W 39 57 21 31 1013.2 - 0.8
18/11:52am 14.9 9.5 14.9 100 0.0 W 37 52 20 28 1013.3 - 0.8
18/11:30am 16.5 14.0 16.2 98 0.2 WNW 24 32 13 17 1012.7 - 0.6
18/11:00am 16.2 12.8 15.7 97 0.3 WNW 28 41 15 22 1012.9 - 0.2
18/10:30am 17.0 15.0 15.5 91 0.9 W 20 32 11 17 1013.1 - 0.0
18/10:00am 18.8 15.9 15.1 79 2.2 WNW 24 33 13 18 1012.8 - 0.0
18/09:30am 19.2 17.3 15.7 80 2.1 WNW 20 28 11 15 1012.9 - 0.0
18/09:00am 18.0 17.4 15.6 86 1.4 NW 13 19 7 10 1013.4 1013.4 0.0
18/08:30am 16.9 16.9 15.2 90 1.0 N 9 13 5 7 1013.7 - 0.0
18/08:00am 15.2 14.0 13.9 92 0.7 NNW 13 19 7 10 1013.9 - 0.0
18/07:30am 13.4 11.2 13.4 100 0.0 NW 17 20 9 11 1013.9 - 0.0
18/07:00am 12.3 10.6 12.3 100 0.0 NW 13 15 7 8 1013.9 - 0.0
18/06:30am 10.0 8.3 10.0 100 0.0 N 9 11 5 6 1013.9 - 0.0
18/06:00am 9.6 7.8 9.6 100 0.0 NNW 9 11 5 6 1014.0 1014.0 0.0
18/05:30am 7.9 5.3 7.9 100 0.0 WNW 11 13 6 7 1014.1 - 0.0
18/05:00am 8.2 5.7 8.2 100 0.0 NNW 11 13 6 7 1013.9 - 0.0
18/04:30am 7.7 5.1 7.7 100 0.0 N 11 11 6 6 1014.1 - 0.0
18/04:00am 7.6 5.7 7.6 100 0.0 N 7 9 4 5 1014.2 - 0.0
18/03:30am 8.4 6.7 8.4 100 0.0 NNE 7 11 4 6 1014.4 - 0.0
18/03:00am 7.8 6.2 7.8 100 0.0 NNE 6 11 3 6 1014.8 1014.8 0.0
18/02:30am 7.6 7.0 7.6 100 0.0 CALM 0 0 0 0 1015.2 - 0.0
18/02:00am 7.9 6.3 7.9 100 0.0 W 6 11 3 6 1015.6 - 0.0
18/01:30am 8.9 8.7 8.9 100 0.0 CALM 0 0 0 0 1015.9 - 0.0
18/01:00am 9.6 9.5 9.6 100 0.0 CALM 0 0 0 0 1016.3 - 0.0
18/12:30am 10.2 10.3 10.2 100 0.0 CALM 0 6 0 3 1016.5 - 0.0
18/12:00am 11.7 10.5 11.7 100 0.0 ENE 9 13 5 7 1016.8 1016.8 0.0
 
Date/Time
EST
Temp
°C
App
Temp
°C
Dew
Point
Rel
Hum
%
Delta-T
°C
Wind Press
QNH
hPa
Press
MSL
hPa
Rain
since 9 am
mm
Dir
 
Spd
km/h
Gust
km/h
Spd
kts
Gust
kts
17/11:30pm 12.2 11.2 12.2 100 0.0 ENE 9 11 5 6 1017.3 - 0.0
17/11:00pm 11.9 10.4 11.9 100 0.0 ENE 11 11 6 6 1017.7 - 0.0
17/10:30pm 11.3 10.0 11.3 100 0.0 NE 9 11 5 6 1018.1 - 0.0
17/10:00pm 11.5 10.6 11.5 100 0.0 NE 7 9 4 5 1018.4 - 0.0
17/09:30pm 11.9 10.8 11.9 100 0.0 NE 9 11 5 6 1018.4 - 0.0
17/09:00pm 11.4 10.1 11.4 100 0.0 NE 9 11 5 6 1018.4 1018.4 0.0
17/08:30pm 10.7 9.6 10.7 100 0.0 NE 7 9 4 5 1018.5 - 0.0
17/08:00pm 10.6 9.5 10.6 100 0.0 NE 7 9 4 5 1018.6 - 0.0
17/07:30pm 11.6 10.8 11.6 100 0.0 NE 7 9 4 5 1018.7 - 0.0
17/07:00pm 12.5 12.1 12.5 100 0.0 NE 6 6 3 3 1018.8 - 0.0
17/06:30pm 13.6 13.6 13.6 100 0.0 ENE 6 7 3 4 1018.8 - 0.0
17/06:00pm 15.1 15.4 15.1 100 0.0 ENE 7 9 4 5 1018.7 1018.7 0.0
17/05:30pm 16.4 16.9 15.6 95 0.5 E 7 11 4 6 1018.6 - 0.0
17/05:00pm 17.8 17.9 15.6 87 1.3 E 9 11 5 6 1018.5 - 0.0
17/04:30pm 18.5 18.1 16.1 86 1.4 E 13 17 7 9 1018.5 - 0.0
17/04:00pm 19.2 18.9 16.4 84 1.7 E 13 19 7 10 1018.6 - 0.0
17/03:30pm 19.4 18.2 16.2 82 1.9 SE 17 20 9 11 1018.8 - 0.0
17/03:00pm 19.2 18.3 15.9 81 2.0 ESE 15 20 8 11 1018.9 1018.9 0.0
17/02:30pm 19.7 19.0 16.3 81 2.0 ESE 15 20 8 11 1018.9 - 0.0
17/02:00pm 20.7 20.8 17.5 82 2.0 ESE 13 20 7 11 1019.0 - 0.0
17/01:30pm 21.2 22.8 16.0 72 3.1 NNE 2 9 1 5 1019.2 - 0.0
17/01:00pm 21.0 22.7 16.2 74 2.9 SSE 2 7 1 4 1019.5 - 0.0
17/12:30pm 20.3 21.4 15.5 74 2.8 ESE 4 7 2 4 1019.8 - 0.0
17/12:00pm 20.8 22.6 16.4 76 2.6 NNE 2 9 1 5 1020.2 1020.2 0.0
17/11:30am 19.7 21.5 15.6 77 2.4 CALM 0 2 0 1 1020.6 - 0.0
17/11:00am 19.9 21.4 15.7 77 2.5 NW 2 7 1 4 1020.9 - 0.0
17/10:30am 18.6 19.4 15.8 84 1.7 WNW 6 9 3 5 1020.9 - 0.0
17/10:00am 17.9 18.3 15.3 85 1.5 W 7 11 4 6 1021.0 - 0.0
17/09:30am 17.2 17.7 15.5 90 1.0 NW 7 9 4 5 1021.1 - 0.0
17/09:00am 15.5 17.3 15.5 100 0.0 CALM 0 0 0 0 1021.2 1021.2 0.0
17/08:30am 13.2 14.2 13.2 100 0.0 CALM 0 0 0 0 1021.1 - 0.0
17/08:00am 10.2 10.3 10.2 100 0.0 CALM 0 0 0 0 1021.0 - 0.0
17/07:30am 7.9 7.4 7.9 100 0.0 CALM 0 0 0 0 1020.9 - 0.0
17/07:00am 7.7 7.2 7.7 100 0.0 CALM 0 0 0 0 1020.5 - 0.0
17/06:30am 7.5 5.8 7.5 100 0.0 NW 6 7 3 4 1020.2 - 0.0
17/06:00am 6.9 4.9 6.9 100 0.0 NW 7 9 4 5 1020.0 1020.0 0.0
17/05:30am 7.9 5.7 7.9 100 0.0 WNW 9 11 5 6 1019.7 - 0.0
17/05:00am 7.0 6.3 7.0 100 0.0 CALM 0 0 0 0 1019.8 - 0.0
17/04:30am 7.2 5.4 7.2 100 0.0 SW 6 7 3 4 1019.6 - 0.0
17/04:00am 7.1 5.1 7.1 100 0.0 SW 7 9 4 5 1019.3 - 0.0
17/03:30am 8.8 8.2 8.8 100 0.0 N 2 6 1 3 1019.1 - 0.0
17/03:00am 10.8 8.6 10.8 100 0.0 NNE 13 17 7 9 1019.0 1019.0 0.0
17/02:30am 11.2 9.1 11.2 100 0.0 NNE 13 17 7 9 1019.0 - 0.0
17/02:00am 10.9 9.1 10.9 100 0.0 NE 11 13 6 7 1019.3 - 0.0
17/01:30am 10.8 8.2 10.8 100 0.0 NNE 15 17 8 9 1019.6 - 0.0
17/01:00am 10.4 8.1 10.4 100 0.0 NNE 13 15 7 8 1019.6 - 0.0
17/12:30am 9.1 6.4 9.1 100 0.0 NNE 13 15 7 8 1019.8 - 0.0
17/12:00am 8.7 6.7 8.7 100 0.0 NNE 9 13 5 7 1019.9 1019.9 0.0
 
Date/Time
EST
Temp
°C
App
Temp
°C
Dew
Point
Rel
Hum
%
Delta-T
°C
Wind Press
QNH
hPa
Press
MSL
hPa
Rain
since 9 am
mm
Dir
 
Spd
km/h
Gust
km/h
Spd
kts
Gust
kts
16/11:30pm 8.2 6.1 8.2 100 0.0 N 9 9 5 5 1020.3 - 0.0
16/11:00pm 9.1 7.6 9.1 100 0.0 N 7 7 4 4 1020.4 - 0.0
16/10:30pm 9.2 7.3 9.2 100 0.0 NNE 9 11 5 6 1020.4 - 0.0
16/10:00pm 9.4 8.0 9.4 100 0.0 NE 7 11 4 6 1020.6 - 0.0
16/09:30pm 9.6 7.8 9.6 100 0.0 NNE 9 11 5 6 1020.7 - 0.0
16/09:00pm 9.8 8.1 9.8 100 0.0 NNE 9 11 5 6 1020.7 1020.7 0.0
16/08:30pm 9.6 7.8 9.6 100 0.0 NNE 9 11 5 6 1020.6 - 0.0
16/08:00pm 10.7 10.6 10.7 100 0.0 NNE 2 9 1 5 1020.5 - 0.0
16/07:30pm 10.5 9.6 10.5 100 0.0 NNE 6 7 3 4 1020.4 - 0.0
16/07:00pm 10.4 8.5 10.4 100 0.0 NNE 11 13 6 7 1020.2 - 0.0
16/06:30pm 11.2 10.2 10.9 98 0.2 NNE 7 9 4 5 1020.0 - 0.0
16/06:00pm 13.4 12.3 12.1 92 0.7 ENE 9 11 5 6 1019.7 1019.7 0.0
16/05:30pm 14.5 13.3 12.7 89 1.0 E 11 17 6 9 1019.5 - 0.0
16/05:00pm 16.1 14.4 13.6 85 1.4 E 15 20 8 11 1019.1 - 0.0
16/04:30pm 17.1 15.5 14.0 82 1.8 E 15 20 8 11 1019.1 - 0.0
16/04:00pm 17.7 15.9 14.4 81 1.9 E 17 26 9 14 1018.9 - 0.0
16/03:30pm 17.9 15.7 14.4 80 2.0 E 19 24 10 13 1019.1 - 0.0
16/03:00pm 18.4 16.2 14.5 78 2.2 E 19 24 10 13 1019.1 1019.1 0.0
16/02:30pm 18.6 17.0 15.1 80 2.0 E 17 24 9 13 1019.1 - 0.0
16/02:00pm 18.9 17.9 15.6 81 1.9 E 15 22 8 12 1019.3 - 0.0
16/01:30pm 19.0 18.4 14.5 75 2.6 ENE 11 17 6 9 1019.4 - 0.0
16/01:00pm 18.6 17.5 14.3 76 2.5 ENE 13 20 7 11 1019.6 - 0.0
16/12:30pm 18.8 17.8 14.5 76 2.5 E 13 17 7 9 1019.9 - 0.0
16/12:00pm 17.8 16.1 13.7 77 2.3 NE 15 20 8 11 1020.4 1020.4 0.0

Other Formats:

Comma delimited format used in spreadsheet applications
http://www.bom.gov.au/fwo/IDV60801/IDV60801.95890.axf

JavaScript Object Notation format (JSON) in row-major order
http://www.bom.gov.au/fwo/IDV60801/IDV60801.95890.json